createdAt,value
2018-09-22T00:01:06.634Z,66.26
2018-09-22T00:03:34.808Z,66.34
2018-09-22T00:06:03.103Z,66.58
2018-09-22T00:08:31.253Z,66.42
2018-09-22T00:10:59.457Z,67.30
2018-09-22T00:13:27.709Z,67.93
2018-09-22T00:15:56.041Z,66.91
2018-09-22T00:18:24.262Z,66.97
2018-09-22T00:20:52.443Z,67.16
2018-09-22T00:23:20.692Z,66.94
2018-09-22T00:25:48.881Z,67.14
2018-09-22T00:28:17.048Z,67.79
2018-09-22T00:30:45.209Z,68.35
2018-09-22T00:33:13.374Z,68.69
2018-09-22T00:35:41.546Z,67.90
2018-09-22T00:38:12.744Z,68.26
2018-09-22T00:40:41.100Z,68.21
2018-09-22T00:43:09.808Z,68.78
2018-09-22T00:45:38.062Z,68.33
2018-09-22T00:48:06.241Z,68.13
2018-09-22T00:50:34.539Z,67.92
2018-09-22T00:53:02.819Z,68.24
2018-09-22T00:55:31.006Z,67.98
2018-09-22T00:57:59.137Z,68.20
2018-09-22T01:00:27.308Z,68.08
2018-09-22T01:02:55.564Z,67.46
2018-09-22T01:05:23.878Z,66.72
2018-09-22T01:07:52.114Z,67.62
2018-09-22T01:10:20.300Z,67.83
2018-09-22T01:12:48.564Z,67.42
2018-09-22T01:15:16.734Z,67.36
2018-09-22T01:17:44.964Z,67.70
2018-09-22T01:20:13.287Z,67.39
2018-09-22T01:22:41.480Z,67.30
2018-09-22T01:25:09.734Z,67.29
2018-09-22T01:27:38.142Z,66.35
2018-09-22T01:30:06.349Z,66.52
2018-09-22T01:32:34.520Z,66.76
2018-09-22T01:35:02.741Z,66.50
2018-09-22T01:37:30.970Z,67.25
2018-09-22T01:39:59.166Z,67.55
2018-09-22T01:42:27.327Z,67.64
2018-09-22T01:44:55.474Z,67.86
2018-09-22T01:47:23.643Z,68.09
2018-09-22T01:49:52.452Z,67.90
2018-09-22T01:52:20.644Z,67.78
2018-09-22T01:54:49.792Z,67.63
2018-09-22T01:57:17.981Z,69.15
2018-09-22T01:59:46.172Z,69.08
2018-09-22T02:02:14.354Z,69.55
2018-09-22T02:04:42.569Z,69.83
2018-09-22T02:07:10.717Z,69.52
2018-09-22T02:09:38.835Z,70.34
2018-09-22T02:12:07.078Z,70.51
2018-09-22T02:14:35.287Z,71.06
2018-09-22T02:17:03.468Z,71.99
2018-09-22T02:19:31.625Z,71.45
2018-09-22T02:21:59.878Z,71.02
2018-09-22T02:24:28.104Z,70.72
2018-09-22T02:26:56.342Z,71.75
2018-09-22T02:29:24.564Z,71.14
2018-09-22T02:31:52.790Z,71.63
2018-09-22T02:34:21.001Z,70.87
2018-09-22T02:36:49.208Z,71.25
2018-09-22T02:39:17.338Z,71.00
2018-09-22T02:41:45.430Z,70.31
2018-09-22T02:44:13.677Z,69.83
2018-09-22T02:46:41.835Z,69.71
2018-09-22T02:49:10.010Z,70.10
2018-09-22T02:51:38.147Z,69.81
2018-09-22T02:54:06.304Z,69.49
2018-09-22T02:56:34.489Z,69.32
2018-09-22T02:59:02.687Z,69.76
2018-09-22T03:01:30.888Z,70.18
2018-09-22T03:03:59.069Z,70.56
2018-09-22T03:06:27.257Z,70.83
2018-09-22T03:08:55.458Z,70.57
2018-09-22T03:11:23.619Z,70.82
2018-09-22T03:13:51.841Z,70.63
2018-09-22T03:16:20.041Z,70.98
2018-09-22T03:18:48.466Z,71.22
2018-09-22T03:21:16.808Z,70.47
2018-09-22T03:23:44.970Z,69.80
2018-09-22T03:26:13.145Z,69.32
2018-09-22T03:28:41.821Z,69.21
2018-09-22T03:31:10.228Z,68.33
2018-09-22T03:33:38.380Z,68.85
2018-09-22T03:36:06.534Z,68.68
2018-09-22T03:38:34.730Z,68.56
2018-09-22T03:41:02.904Z,68.81
2018-09-22T03:43:31.179Z,69.26
2018-09-22T03:45:59.470Z,69.92
2018-09-22T03:48:28.351Z,69.24
2018-09-22T03:50:56.556Z,69.49
2018-09-22T03:53:24.701Z,69.21
2018-09-22T03:55:52.909Z,69.29
2018-09-22T03:58:21.064Z,69.64
2018-09-22T04:00:49.299Z,69.50
2018-09-22T04:03:17.458Z,69.08
2018-09-22T04:05:46.277Z,69.20
2018-09-22T04:08:14.427Z,68.96
2018-09-22T04:10:42.642Z,68.84
2018-09-22T04:13:10.811Z,69.29
2018-09-22T04:15:38.978Z,68.82
2018-09-22T04:18:07.462Z,69.15
2018-09-22T04:20:35.633Z,69.17
2018-09-22T04:23:03.807Z,68.55
2018-09-22T04:25:32.014Z,69.33
2018-09-22T04:28:00.196Z,68.94
2018-09-22T04:30:28.340Z,69.16
2018-09-22T04:32:56.507Z,68.87
2018-09-22T04:35:24.688Z,69.16
2018-09-22T04:37:52.954Z,69.74
2018-09-22T04:40:21.222Z,69.34
2018-09-22T04:42:49.408Z,69.07
2018-09-22T04:45:17.683Z,68.69
2018-09-22T04:47:45.938Z,69.12
2018-09-22T04:50:14.144Z,68.60
2018-09-22T04:52:42.334Z,68.30
2018-09-22T04:55:10.480Z,68.08
2018-09-22T04:57:38.814Z,68.41
2018-09-22T05:00:07.820Z,67.89
2018-09-22T05:02:36.043Z,68.59
2018-09-22T05:05:04.484Z,69.04
2018-09-22T05:07:32.655Z,70.02
2018-09-22T05:10:00.849Z,69.68
2018-09-22T05:12:29.496Z,69.17
2018-09-22T05:14:57.750Z,69.23
2018-09-22T05:17:25.922Z,69.45
2018-09-22T05:19:54.176Z,68.72
2018-09-22T05:22:22.388Z,68.35
2018-09-22T05:24:50.655Z,69.36
2018-09-22T05:27:18.924Z,73.14
2018-09-22T05:29:47.119Z,76.91
2018-09-22T05:32:15.280Z,75.63
2018-09-22T05:34:43.514Z,76.56
2018-09-22T05:37:11.686Z,79.75
2018-09-22T05:39:39.849Z,79.21
2018-09-22T05:42:07.970Z,77.61
2018-09-22T05:44:36.783Z,76.64
2018-09-22T05:47:05.135Z,76.64
2018-09-22T05:49:33.364Z,76.78
2018-09-22T05:52:01.509Z,76.66
2018-09-22T05:54:29.653Z,77.17
2018-09-22T05:56:57.839Z,76.61
2018-09-22T05:59:32.847Z,77.40
2018-09-22T06:02:01.105Z,77.39
2018-09-22T06:04:29.372Z,76.80
2018-09-22T06:06:57.536Z,76.68
2018-09-22T06:09:25.711Z,75.85
2018-09-22T06:11:53.943Z,75.38
2018-09-22T06:14:22.154Z,75.81
2018-09-22T06:16:50.337Z,75.71
2018-09-22T06:19:18.575Z,74.85
2018-09-22T06:21:46.713Z,75.04
2018-09-22T06:24:14.879Z,74.19
2018-09-22T06:26:43.128Z,73.03
2018-09-22T06:29:11.338Z,74.08
2018-09-22T06:31:39.485Z,72.87
2018-09-22T06:34:07.710Z,74.21
2018-09-22T06:36:35.981Z,72.11
2018-09-22T06:39:05.809Z,72.49
2018-09-22T06:41:34.074Z,72.18
2018-09-22T06:44:02.379Z,71.66
2018-09-22T06:46:30.606Z,71.08
2018-09-22T06:48:58.744Z,71.06
2018-09-22T06:51:27.023Z,70.32
2018-09-22T06:53:55.991Z,70.46
2018-09-22T06:56:24.265Z,69.97
2018-09-22T06:58:59.230Z,68.95
2018-09-22T07:01:27.403Z,69.36
2018-09-22T07:03:55.534Z,69.25
2018-09-22T07:06:23.708Z,68.15
2018-09-22T07:08:52.394Z,68.00
2018-09-22T07:11:20.643Z,69.08
2018-09-22T07:13:49.573Z,68.20
2018-09-22T07:16:17.745Z,69.01
2018-09-22T07:18:45.979Z,67.89
2018-09-22T07:21:14.507Z,67.50
2018-09-22T07:23:42.702Z,68.26
2018-09-22T07:26:10.978Z,68.15
2018-09-22T07:28:39.151Z,67.34
2018-09-22T07:31:07.839Z,66.05
2018-09-22T07:33:36.303Z,65.98
2018-09-22T07:36:04.464Z,66.28
2018-09-22T07:38:33.192Z,65.30
2018-09-22T07:41:01.414Z,65.16
2018-09-22T07:43:29.685Z,66.09
2018-09-22T07:45:58.487Z,65.56
2018-09-22T07:48:26.691Z,65.42
2018-09-22T07:50:54.909Z,64.52
2018-09-22T07:53:23.150Z,64.08
2018-09-22T07:55:51.292Z,63.24
2018-09-22T07:58:19.507Z,63.10
2018-09-22T08:00:47.729Z,62.89
2018-09-22T08:03:16.024Z,63.41
2018-09-22T08:05:44.197Z,63.58
2018-09-22T08:08:12.574Z,64.37
2018-09-22T08:10:40.791Z,63.69
2018-09-22T08:13:09.031Z,63.73
2018-09-22T08:15:37.371Z,63.76
2018-09-22T08:18:05.579Z,62.79
2018-09-22T08:20:33.752Z,62.34
2018-09-22T08:23:03.699Z,62.66
2018-09-22T08:25:32.093Z,63.30
2018-09-22T08:28:00.341Z,62.42
2018-09-22T08:30:29.335Z,62.40
2018-09-22T08:32:58.348Z,62.36
2018-09-22T08:35:27.503Z,62.42
2018-09-22T08:37:55.766Z,62.18
2018-09-22T08:40:23.940Z,61.46
2018-09-22T08:42:52.104Z,61.38
2018-09-22T08:45:20.357Z,61.30
2018-09-22T08:47:48.552Z,61.16
2018-09-22T08:50:16.782Z,60.93
2018-09-22T08:52:45.071Z,60.21
2018-09-22T08:55:13.275Z,59.20
2018-09-22T08:57:41.483Z,58.67
2018-09-22T09:00:09.702Z,58.01
2018-09-22T09:02:37.956Z,58.03
2018-09-22T09:05:06.294Z,58.02
2018-09-22T09:07:35.192Z,57.46
2018-09-22T09:10:03.420Z,57.26
2018-09-22T09:12:31.682Z,57.27
2018-09-22T09:15:00.002Z,58.94
2018-09-22T09:17:28.158Z,56.70
2018-09-22T09:19:56.396Z,57.21
2018-09-22T09:22:24.780Z,57.99
2018-09-22T09:24:53.008Z,57.35
2018-09-22T09:27:21.219Z,57.09
2018-09-22T09:29:49.511Z,56.88
2018-09-22T09:32:18.301Z,57.06
2018-09-22T09:34:47.489Z,56.57
2018-09-22T09:37:15.638Z,57.35
2018-09-22T09:39:43.940Z,57.17
2018-09-22T09:42:12.173Z,56.06
2018-09-22T09:44:40.365Z,55.88
2018-09-22T09:47:08.595Z,55.66
2018-09-22T09:49:36.824Z,56.12
2018-09-22T09:52:05.049Z,55.47
2018-09-22T09:54:34.056Z,55.21
2018-09-22T09:57:13.416Z,55.66
2018-09-22T09:59:41.676Z,55.63
2018-09-22T10:02:10.029Z,56.46
2018-09-22T10:04:38.869Z,56.10
2018-09-22T10:07:07.174Z,55.57
2018-09-22T10:09:35.348Z,54.87
2018-09-22T10:12:03.568Z,54.80
2018-09-22T10:14:32.148Z,54.20
2018-09-22T10:17:00.917Z,53.84
2018-09-22T10:19:30.203Z,55.09
2018-09-22T10:21:58.530Z,53.44
2018-09-22T10:24:27.226Z,53.04
2018-09-22T10:26:55.406Z,53.40
2018-09-22T10:29:23.558Z,53.12
2018-09-22T10:31:51.888Z,52.50
2018-09-22T10:34:20.092Z,53.03
2018-09-22T10:36:48.255Z,53.75
2018-09-22T10:39:16.533Z,53.66
2018-09-22T10:41:55.529Z,54.14
2018-09-22T10:44:24.433Z,53.90
2018-09-22T10:46:52.747Z,54.06
2018-09-22T10:49:21.795Z,53.49
2018-09-22T10:51:50.705Z,53.36
2018-09-22T10:54:19.260Z,52.38
2018-09-22T10:56:47.621Z,52.22
2018-09-22T10:59:15.916Z,52.76
2018-09-22T11:01:45.056Z,52.30
2018-09-22T11:04:13.392Z,52.34
2018-09-22T11:06:41.655Z,52.63
2018-09-22T11:09:09.855Z,52.35
2018-09-22T11:11:38.092Z,51.82
2018-09-22T11:14:06.415Z,51.25
2018-09-22T11:16:34.574Z,50.98
2018-09-22T11:19:02.981Z,50.99
2018-09-22T11:21:31.399Z,51.60
2018-09-22T11:23:59.663Z,51.36
2018-09-22T11:26:27.904Z,51.45
2018-09-22T11:28:56.978Z,51.66
2018-09-22T11:31:25.209Z,51.21
2018-09-22T11:33:53.388Z,50.14
2018-09-22T11:36:21.621Z,49.22
2018-09-22T11:38:49.803Z,49.06
2018-09-22T11:41:18.078Z,48.13
2018-09-22T11:43:46.376Z,48.15
2018-09-22T11:46:14.542Z,47.27
2018-09-22T11:48:42.744Z,47.90
2018-09-22T11:51:10.907Z,47.88
2018-09-22T11:53:39.172Z,47.54
2018-09-22T11:56:07.332Z,47.59
2018-09-22T11:58:35.552Z,48.26
2018-09-22T12:01:03.853Z,48.72
2018-09-22T12:03:31.996Z,47.97
2018-09-22T12:06:00.329Z,49.00
2018-09-22T12:08:28.483Z,49.69
2018-09-22T12:10:56.872Z,48.99
2018-09-22T12:13:25.067Z,48.13
2018-09-22T12:15:53.272Z,48.46
2018-09-22T12:18:21.476Z,48.36
2018-09-22T12:20:49.681Z,48.45
2018-09-22T12:23:17.927Z,47.94
2018-09-22T12:25:46.237Z,48.39
2018-09-22T12:28:14.997Z,48.29
2018-09-22T12:30:43.248Z,48.18
2018-09-22T12:33:11.469Z,48.63
2018-09-22T12:35:39.725Z,48.50
2018-09-22T12:38:07.963Z,47.37
2018-09-22T12:40:36.585Z,47.18
2018-09-22T12:43:04.858Z,45.61
2018-09-22T12:45:33.608Z,46.08
2018-09-22T12:48:02.566Z,46.32
2018-09-22T12:50:37.601Z,46.04
2018-09-22T12:53:05.916Z,45.91
2018-09-22T12:55:34.193Z,45.62
2018-09-22T12:58:02.365Z,44.49
2018-09-22T13:00:30.642Z,44.57
2018-09-22T13:02:59.193Z,43.22
2018-09-22T13:05:28.795Z,43.74
2018-09-22T13:07:57.042Z,42.83
2018-09-22T13:10:25.345Z,43.53
2018-09-22T13:12:53.728Z,43.09
2018-09-22T13:15:22.107Z,43.81
2018-09-22T13:17:50.393Z,43.64
2018-09-22T13:20:20.693Z,43.91
2018-09-22T13:22:48.979Z,43.16
2018-09-22T13:25:17.780Z,43.67
2018-09-22T13:27:46.003Z,43.08
2018-09-22T13:30:14.221Z,42.20
2018-09-22T13:32:42.565Z,41.63
2018-09-22T13:35:10.760Z,42.07
2018-09-22T13:37:39.017Z,41.39
2018-09-22T13:40:07.279Z,41.04
2018-09-22T13:42:35.544Z,41.48
2018-09-22T13:45:03.682Z,40.27
2018-09-22T13:47:31.874Z,40.08
2018-09-22T13:50:00.280Z,40.60
2018-09-22T13:52:28.644Z,40.26
2018-09-22T13:54:56.862Z,39.78
2018-09-22T13:57:25.211Z,39.91
2018-09-22T13:59:57.938Z,40.17
2018-09-22T14:02:26.234Z,40.62
2018-09-22T14:05:00.061Z,40.45
2018-09-22T14:07:28.272Z,40.82
2018-09-22T14:09:56.633Z,40.97
2018-09-22T14:12:25.013Z,40.84
2018-09-22T14:14:53.658Z,41.47
2018-09-22T14:17:21.856Z,40.83
2018-09-22T14:19:50.619Z,40.41
2018-09-22T14:22:18.818Z,40.79
2018-09-22T14:24:47.006Z,40.67
2018-09-22T14:27:15.254Z,41.69
2018-09-22T14:29:44.721Z,41.72
2018-09-22T14:32:13.466Z,42.20
2018-09-22T14:34:41.696Z,41.31
2018-09-22T14:37:09.963Z,41.58
2018-09-22T14:39:40.386Z,41.54
2018-09-22T14:42:08.723Z,41.48
2018-09-22T14:44:37.774Z,41.74
2018-09-22T14:47:06.868Z,42.40
2018-09-22T14:49:35.089Z,41.70
2018-09-22T14:52:04.219Z,41.26
2018-09-22T14:54:33.733Z,41.26
2018-09-22T14:57:01.964Z,40.78
2018-09-22T14:59:30.117Z,39.88
2018-09-22T15:01:58.284Z,40.02
2018-09-22T15:04:26.727Z,40.30
2018-09-22T15:06:55.505Z,39.75
2018-09-22T15:09:31.914Z,39.79
2018-09-22T15:12:02.403Z,39.79
2018-09-22T15:14:30.831Z,39.69
2018-09-22T15:16:59.952Z,40.20
2018-09-22T15:19:29.557Z,40.04
2018-09-22T15:21:57.790Z,40.54
2018-09-22T15:24:26.096Z,40.45
2018-09-22T15:26:54.314Z,40.38
2018-09-22T15:29:28.707Z,40.63
2018-09-22T15:31:57.576Z,40.60
2018-09-22T15:37:02.863Z,40.48
2018-09-22T15:39:31.148Z,40.48
2018-09-22T15:41:59.429Z,40.49
2018-09-22T15:44:27.882Z,40.85
2018-09-22T15:46:58.713Z,40.61
2018-09-22T15:49:29.113Z,40.10
2018-09-22T15:51:57.514Z,40.32
2018-09-22T15:54:26.394Z,40.71
2018-09-22T15:56:54.559Z,40.40
2018-09-22T15:59:22.747Z,40.55
2018-09-22T16:01:50.958Z,41.16
2018-09-22T16:04:19.376Z,41.00
2018-09-22T16:06:47.719Z,40.72
2018-09-22T16:09:21.685Z,40.85
2018-09-22T16:11:50.622Z,41.24
2018-09-22T16:14:18.943Z,41.28
2018-09-22T16:16:47.142Z,41.88
2018-09-22T16:19:15.371Z,42.08
2018-09-22T16:21:43.911Z,42.20
2018-09-22T16:24:13.250Z,42.42
2018-09-22T16:26:41.393Z,42.36
2018-09-22T16:29:09.679Z,43.03
2018-09-22T16:31:38.719Z,42.99
2018-09-22T16:34:10.037Z,43.62
2018-09-22T16:36:38.447Z,43.87
2018-09-22T16:39:07.920Z,43.75
2018-09-22T16:41:36.841Z,43.78
2018-09-22T16:44:05.899Z,44.49
2018-09-22T16:46:34.647Z,44.49
2018-09-22T16:49:02.988Z,44.26
2018-09-22T16:51:31.592Z,44.30
2018-09-22T16:53:59.889Z,44.71
2018-09-22T16:56:28.440Z,44.54
2018-09-22T16:59:01.111Z,44.51
2018-09-22T17:01:31.800Z,44.42
2018-09-22T17:04:00.104Z,45.48
2018-09-22T17:06:28.314Z,44.93
2018-09-22T17:08:57.063Z,45.37
2018-09-22T17:11:30.947Z,45.91
2018-09-22T17:13:59.382Z,45.95
2018-09-22T17:16:28.693Z,45.91
2018-09-22T17:18:57.359Z,46.17
2018-09-22T17:21:28.971Z,46.42
2018-09-22T17:23:59.169Z,46.68
2018-09-22T17:26:27.609Z,46.34
2018-09-22T17:28:55.793Z,47.21
2018-09-22T17:31:24.332Z,46.83
2018-09-22T17:33:53.132Z,46.91
2018-09-22T17:36:21.476Z,47.46
2018-09-22T17:41:26.083Z,47.41
2018-09-22T17:43:54.340Z,47.61
2018-09-22T17:46:22.536Z,47.92
2018-09-22T17:48:53.920Z,47.83
2018-09-22T17:51:25.909Z,47.15
2018-09-22T17:53:59.484Z,47.59
2018-09-22T17:56:27.754Z,47.58
2018-09-22T17:58:55.969Z,48.19
2018-09-22T18:01:29.233Z,48.57
2018-09-22T18:03:58.018Z,48.35
2018-09-22T18:06:26.157Z,48.49
2018-09-22T18:08:54.570Z,48.57
2018-09-22T18:11:22.812Z,49.04
2018-09-22T18:13:51.323Z,48.99
2018-09-22T18:16:19.540Z,48.58
2018-09-22T18:18:47.804Z,48.38
2018-09-22T18:21:16.636Z,48.77
2018-09-22T18:23:44.849Z,49.16
2018-09-22T18:26:13.060Z,48.58
2018-09-22T18:28:41.298Z,48.76
2018-09-22T18:31:09.540Z,48.86
2018-09-22T18:33:37.752Z,49.28
2018-09-22T18:36:06.506Z,49.00
2018-09-22T18:38:34.710Z,49.51
2018-09-22T18:41:02.978Z,49.77
2018-09-22T18:43:31.266Z,49.41
2018-09-22T18:46:04.588Z,49.31
2018-09-22T18:48:32.932Z,49.90
2018-09-22T18:51:01.157Z,49.12
2018-09-22T18:53:30.138Z,49.06
2018-09-22T18:55:58.576Z,49.16
2018-09-22T18:58:27.058Z,49.77
2018-09-22T19:00:55.203Z,50.13
2018-09-22T19:03:23.403Z,50.49
2018-09-22T19:05:51.779Z,50.91
2018-09-22T19:08:19.918Z,50.93
2018-09-22T19:10:48.114Z,51.46
2018-09-22T19:13:20.519Z,52.25
2018-09-22T19:15:51.519Z,52.79
2018-09-22T19:18:24.792Z,53.08
2018-09-22T19:20:56.535Z,53.23
2018-09-22T19:23:31.099Z,53.67
2018-09-22T19:26:13.210Z,54.14
2018-09-22T19:29:48.226Z,54.47
2018-09-22T19:32:27.540Z,54.87
2018-09-22T19:37:36.117Z,56.51
2018-09-22T19:40:14.721Z,56.87
2018-09-22T19:42:46.709Z,56.54
2018-09-22T19:45:26.378Z,56.43
2018-09-22T19:48:00.149Z,56.21
2018-09-22T19:50:36.863Z,55.97
2018-09-22T19:53:05.418Z,56.41
2018-09-22T19:55:33.903Z,56.31
2018-09-22T19:58:02.609Z,56.25
2018-09-22T20:00:32.280Z,56.45
2018-09-22T20:03:00.573Z,56.67
2018-09-22T20:05:28.817Z,56.57
2018-09-22T20:07:57.226Z,56.91
2018-09-22T20:10:25.458Z,57.17
2018-09-22T20:12:54.802Z,57.64
2018-09-22T20:15:23.033Z,58.34
2018-09-22T20:17:51.334Z,59.81
2018-09-22T20:20:19.636Z,59.25
2018-09-22T20:22:48.017Z,60.31
2018-09-22T20:25:16.900Z,59.89
2018-09-22T20:27:45.380Z,60.43
2018-09-22T20:30:13.829Z,60.82
2018-09-22T20:32:42.131Z,60.27
2018-09-22T20:35:10.415Z,60.91
2018-09-22T20:37:38.784Z,61.58
2018-09-22T20:40:07.650Z,61.82
2018-09-22T20:42:35.936Z,63.38
2018-09-22T20:45:04.255Z,63.51
2018-09-22T20:47:32.486Z,63.76
2018-09-22T20:50:00.781Z,64.30
2018-09-22T20:52:28.971Z,65.13
2018-09-22T20:54:57.252Z,64.60
2018-09-22T20:57:25.724Z,64.53
2018-09-22T20:59:54.021Z,64.67
2018-09-22T21:02:22.440Z,64.47
2018-09-22T21:04:50.881Z,64.99
2018-09-22T21:07:19.135Z,65.31
2018-09-22T21:09:47.377Z,65.88
2018-09-22T21:12:15.591Z,65.16
2018-09-22T21:14:43.866Z,65.65
2018-09-22T21:17:12.133Z,64.76
2018-09-22T21:19:40.374Z,65.61
2018-09-22T21:22:08.590Z,65.59
2018-09-22T21:24:36.886Z,65.41
2018-09-22T21:27:05.083Z,65.85
2018-09-22T21:29:40.123Z,67.14
2018-09-22T21:32:08.304Z,66.06
2018-09-22T21:34:36.532Z,66.12
2018-09-22T21:37:04.914Z,66.91
2018-09-22T21:39:33.116Z,67.31
2018-09-22T21:42:01.366Z,67.62
2018-09-22T21:44:30.363Z,66.76
2018-09-22T21:46:58.499Z,67.35
2018-09-22T21:49:26.885Z,66.93
2018-09-22T21:51:55.281Z,68.30
2018-09-22T21:54:23.457Z,68.06
2018-09-22T21:56:51.741Z,69.34
2018-09-22T21:59:19.912Z,69.16
2018-09-22T22:01:48.126Z,69.92
2018-09-22T22:04:16.500Z,70.91
2018-09-22T22:06:44.831Z,70.35
2018-09-22T22:09:14.245Z,70.83
2018-09-22T22:11:42.605Z,71.86
2018-09-22T22:14:11.231Z,73.10
2018-09-22T22:16:40.148Z,72.59
2018-09-22T22:19:08.770Z,71.29
2018-09-22T22:21:36.945Z,72.55
2018-09-22T22:24:05.315Z,72.57
2018-09-22T22:26:33.604Z,72.03
2018-09-22T22:29:01.755Z,71.80
2018-09-22T22:31:30.003Z,72.69
2018-09-22T22:33:58.220Z,73.90
2018-09-22T22:36:26.517Z,73.02
2018-09-22T22:38:54.669Z,73.73
2018-09-22T22:41:23.013Z,72.62
2018-09-22T22:43:51.221Z,74.84
2018-09-22T22:46:19.554Z,73.99
2018-09-22T22:48:47.815Z,72.82
2018-09-22T22:51:16.056Z,73.87
2018-09-22T22:53:44.257Z,73.06
2018-09-22T22:56:12.434Z,72.85
2018-09-22T22:58:40.650Z,73.11
2018-09-22T23:01:09.115Z,72.52
2018-09-22T23:03:37.245Z,72.03
2018-09-22T23:06:05.399Z,72.39
2018-09-22T23:08:33.699Z,73.03
2018-09-22T23:11:08.628Z,73.62
2018-09-22T23:13:36.895Z,73.39
2018-09-22T23:16:05.059Z,73.18
2018-09-22T23:18:33.224Z,74.31
2018-09-22T23:21:01.575Z,73.97
2018-09-22T23:23:29.865Z,74.60
2018-09-22T23:25:58.133Z,74.70
2018-09-22T23:28:26.314Z,74.28
2018-09-22T23:30:54.607Z,74.74
2018-09-22T23:33:22.867Z,74.83
2018-09-22T23:35:51.010Z,74.57
2018-09-22T23:38:19.163Z,74.62
2018-09-22T23:40:47.353Z,74.20
2018-09-22T23:43:15.470Z,75.07
2018-09-22T23:45:43.724Z,74.95
2018-09-22T23:48:12.051Z,75.82
2018-09-22T23:50:40.189Z,74.82
2018-09-22T23:53:08.352Z,75.62
2018-09-22T23:55:36.532Z,75.52
2018-09-22T23:58:05.373Z,76.47
